Time;durP1;ratioP1;P1;durP2;ratioP2;P2;SDS_P1;SDS_P2;PMS_P1;PMS_P2;Temp;Humidity;BMP_temperature;BMP_pressure;BME280_temperature;BME280_humidity;BME280_pressure;Samples;Min_cycle;Max_cycle;Signal;HPM_P1;HPM_P2
2023/05/11 00:01:14;;;;;;;20.92;17.20;;;;;;;11.91;100.00;101366.47;5035091;28;20047;-91
2023/05/11 00:03:39;;;;;;;18.67;16.65;;;;;;;11.95;100.00;101359.94;5034745;28;20021;-90
2023/05/11 00:06:04;;;;;;;17.48;15.65;;;;;;;11.85;100.00;101350.91;5034494;28;20034;-90
2023/05/11 00:08:30;;;;;;;20.85;16.73;;;;;;;11.82;100.00;101343.16;4997484;28;1070132;-90
2023/05/11 00:10:55;;;;;;;18.48;16.52;;;;;;;11.94;100.00;101366.25;5034689;28;20033;-90
2023/05/11 00:13:21;;;;;;;17.65;15.75;;;;;;;11.91;100.00;101358.50;5036089;28;20029;-90
2023/05/11 00:15:46;;;;;;;20.63;16.77;;;;;;;11.94;100.00;101357.41;5034658;28;20031;-90
2023/05/11 00:18:11;;;;;;;20.70;17.30;;;;;;;11.91;100.00;101350.50;5035605;28;20480;-90
2023/05/11 00:20:37;;;;;;;19.58;16.80;;;;;;;11.90;100.00;101342.59;5035653;28;20029;-90
2023/05/11 00:23:03;;;;;;;17.85;15.68;;;;;;;11.79;100.00;101330.06;5035872;28;20025;-90
2023/05/11 00:25:28;;;;;;;22.55;17.80;;;;;;;11.79;100.00;101333.59;5035590;28;20025;-90
2023/05/11 00:27:53;;;;;;;20.35;16.17;;;;;;;11.91;100.00;101350.50;5034111;28;20451;-90
2023/05/11 00:30:19;;;;;;;21.65;17.58;;;;;;;11.81;100.00;101339.66;5034104;28;20391;-90
2023/05/11 00:32:44;;;;;;;21.02;18.75;;;;;;;11.75;100.00;101334.78;5035379;28;20061;-90
2023/05/11 00:35:11;;;;;;;23.88;18.95;;;;;;;11.83;100.00;101358.19;5035344;28;20029;-90
2023/05/11 00:37:39;;;;;;;22.08;18.00;;;;;;;11.71;100.00;101340.44;5035818;28;20032;-90
2023/05/11 00:40:06;;;;;;;22.00;18.73;;;;;;;11.71;100.00;101343.09;5035817;28;20091;-90
2023/05/11 00:42:31;;;;;;;23.75;18.40;;;;;;;11.78;100.00;101360.34;5035313;28;20032;-90
2023/05/11 00:44:57;;;;;;;27.67;20.63;;;;;;;11.74;100.00;101351.72;5034337;28;20034;-90
2023/05/11 00:47:22;;;;;;;26.92;20.13;;;;;;;11.64;100.00;101342.69;5033996;28;20037;-90
2023/05/11 00:49:49;;;;;;;25.20;19.70;;;;;;;11.69;100.00;101347.69;5035149;28;20060;-90
2023/05/11 00:52:15;;;;;;;25.42;19.83;;;;;;;11.65;100.00;101352.38;5033948;28;20029;-90
2023/05/11 00:54:41;;;;;;;24.05;20.38;;;;;;;11.69;100.00;101361.00;5035361;28;20112;-90
2023/05/11 00:57:07;;;;;;;25.95;20.92;;;;;;;11.71;100.00;101357.28;5035047;28;20165;-90
2023/05/11 00:59:32;;;;;;;24.63;21.25;;;;;;;11.72;100.00;101360.78;5033660;28;20595;-90
2023/05/11 01:01:58;;;;;;;26.67;22.13;;;;;;;11.70;100.00;101362.69;5034951;28;20057;-90
2023/05/11 01:04:23;;;;;;;24.92;21.55;;;;;;;11.59;100.00;101351.03;5033505;28;20022;-90
2023/05/11 01:07:02;;;;;;;25.88;20.58;;;;;;;11.65;100.00;101355.88;5035171;28;20063;-90
2023/05/11 01:09:52;;;;;;;29.08;20.98;;;;;;;11.76;100.00;101376.41;5035052;28;20103;-90
2023/05/11 01:12:39;;;;;;;22.90;20.42;;;;;;;11.71;100.00;101369.69;5035953;28;20026;-89
2023/05/11 01:15:13;;;;;;;27.65;21.45;;;;;;;11.71;100.00;101372.38;5036358;28;20034;-89
2023/05/11 01:17:48;;;;;;;28.85;21.77;;;;;;;11.61;100.00;101351.78;5038202;28;20029;-89
2023/05/11 01:20:20;;;;;;;26.70;20.67;;;;;;;11.67;100.00;101371.75;5037425;28;20061;-90
2023/05/11 01:23:13;;;;;;;29.27;21.95;;;;;;;11.74;100.00;101373.03;5034571;28;20026;-90
2023/05/11 01:26:07;;;;;;;26.92;22.42;;;;;;;11.75;100.00;101376.53;5034532;28;20037;-90
2023/05/11 01:28:32;;;;;;;30.40;20.55;;;;;;;11.71;100.00;101372.38;5034710;28;20053;-90
2023/05/11 01:31:07;;;;;;;27.80;21.77;;;;;;;11.66;100.00;101365.59;5034169;28;20307;-90
2023/05/11 01:33:36;;;;;;;26.75;22.08;;;;;;;11.68;100.00;101370.78;5034848;28;20087;-89
2023/05/11 01:36:08;;;;;;;29.27;22.30;;;;;;;11.67;100.00;101371.75;5034354;28;20405;-90
2023/05/11 01:38:44;;;;;;;28.55;21.52;;;;;;;11.66;100.00;101367.41;5033917;28;20025;-90
2023/05/11 01:41:17;;;;;;;25.73;20.45;;;;;;;11.66;100.00;101368.25;5034654;28;20535;-90
2023/05/11 01:43:48;;;;;;;27.08;22.40;;;;;;;11.50;100.00;101342.88;5034284;28;20076;-90
2023/05/11 01:46:15;;;;;;;26.67;22.45;;;;;;;11.62;100.00;101357.94;5034349;28;20091;-90
2023/05/11 01:48:44;;;;;;;28.45;21.95;;;;;;;11.63;100.00;101368.47;5034269;28;20345;-90
2023/05/11 01:51:11;;;;;;;27.23;22.25;;;;;;;11.60;100.00;101358.03;5034261;28;20040;-90
2023/05/11 01:53:39;;;;;;;33.13;23.10;;;;;;;11.56;100.00;101351.25;5033796;28;20032;-90
2023/05/11 01:56:06;;;;;;;30.70;23.53;;;;;;;11.59;100.00;101360.81;5034134;28;20025;-90
2023/05/11 01:58:35;;;;;;;30.63;23.50;;;;;;;11.68;100.00;101380.59;5033733;28;20307;-90
2023/05/11 02:01:02;;;;;;;33.08;23.75;;;;;;;11.61;100.00;101365.06;5034042;28;20483;-90
2023/05/11 02:03:31;;;;;;;31.65;23.80;;;;;;;11.60;100.00;101366.03;5033901;28;20036;-90
2023/05/11 02:05:59;;;;;;;31.98;23.75;;;;;;;11.63;100.00;101376.44;5033842;28;20471;-90
2023/05/11 02:08:27;;;;;;;31.15;23.88;;;;;;;11.62;100.00;101371.22;5032339;28;20056;-90
2023/05/11 02:10:53;;;;;;;33.10;25.05;;;;;;;11.62;100.00;101366.78;5033858;28;20030;-90
2023/05/11 02:13:21;;;;;;;31.15;24.73;;;;;;;11.57;100.00;101355.59;5033900;28;20033;-90
2023/05/11 02:15:49;;;;;;;36.05;25.65;;;;;;;11.54;100.00;101350.53;5033465;28;20387;-91
2023/05/11 02:18:15;;;;;;;31.90;25.92;;;;;;;11.54;100.00;101353.19;5032617;28;20108;-90
2023/05/11 02:20:46;;;;;;;30.00;25.20;;;;;;;11.57;100.00;101358.25;5033852;28;20030;-90
2023/05/11 02:23:14;;;;;;;37.40;27.90;;;;;;;11.44;100.00;101333.50;5032389;28;20041;-90
2023/05/11 02:25:41;;;;;;;32.78;27.48;;;;;;;11.48;100.00;101340.31;5033346;28;20025;-90
2023/05/11 02:28:07;;;;;;;34.00;26.88;;;;;;;11.63;100.00;101356.97;5033512;28;20040;-90
2023/05/11 02:30:40;;;;;;;37.35;27.88;;;;;;;11.41;100.00;101331.09;5033396;28;20029;-90
2023/05/11 02:33:08;;;;;;;33.67;27.42;;;;;;;11.61;100.00;101358.91;5032225;28;20029;-90
2023/05/11 02:35:39;;;;;;;36.85;28.42;;;;;;;11.51;100.00;101350.75;5032284;28;20468;-90
2023/05/11 02:38:07;;;;;;;34.28;27.13;;;;;;;11.57;100.00;101360.91;5032235;28;20388;-91
2023/05/11 02:40:41;;;;;;;40.50;30.42;;;;;;;11.43;100.00;101342.47;5032276;28;20431;-90
2023/05/11 02:43:10;;;;;;;37.28;28.95;;;;;;;11.36;100.00;101330.56;5032194;28;20032;-90
2023/05/11 02:45:36;;;;;;;41.78;30.45;;;;;;;11.40;100.00;101343.53;5033613;28;20624;-90
2023/05/11 02:48:07;;;;;;;36.53;30.38;;;;;;;11.40;100.00;101348.00;5031919;28;20021;-90
2023/05/11 02:50:36;;;;;;;40.85;30.38;;;;;;;11.45;100.00;101360.00;5033118;28;20535;-90
2023/05/11 02:53:06;;;;;;;39.20;30.08;;;;;;;11.42;100.00;101351.41;5033078;28;20026;-90
2023/05/11 02:55:32;;;;;;;39.60;30.45;;;;;;;11.32;100.00;101334.41;5031794;28;20030;-90
2023/05/11 02:57:57;;;;;;;37.38;29.75;;;;;;;11.45;100.00;101353.84;5032926;28;20022;-91
2023/05/11 03:00:23;;;;;;;40.85;30.92;;;;;;;11.52;100.00;101368.38;5031955;28;20395;-90
2023/05/11 03:02:51;;;;;;;40.38;32.03;;;;;;;11.46;100.00;101353.72;5032984;28;20475;-90
2023/05/11 03:05:17;;;;;;;40.20;31.17;;;;;;;11.35;100.00;101344.81;5031879;28;20034;-90
2023/05/11 03:07:45;;;;;;;40.60;30.73;;;;;;;11.29;100.00;101336.34;5031681;28;20383;-90
2023/05/11 03:10:11;;;;;;;40.27;31.57;;;;;;;11.28;100.00;101337.28;5033118;28;20060;-90
2023/05/11 03:12:37;;;;;;;43.75;31.88;;;;;;;11.32;100.00;101350.34;5032986;28;20474;-90
2023/05/11 03:15:04;;;;;;;42.45;33.13;;;;;;;11.30;100.00;101351.31;5032771;28;20026;-90
2023/05/11 03:17:31;;;;;;;43.28;32.88;;;;;;;11.27;100.00;101354.22;5031501;28;20117;-90
2023/05/11 03:19:58;;;;;;;42.50;30.52;;;;;;;11.25;100.00;101348.13;5033024;28;20083;-90
2023/05/11 03:22:24;;;;;;;41.30;32.92;;;;;;;11.38;100.00;101374.72;5033851;28;20025;-90
2023/05/11 03:24:51;;;;;;;41.05;31.15;;;;;;;11.38;100.00;101382.69;5033322;28;20030;-90
2023/05/11 03:27:17;;;;;;;41.30;30.98;;;;;;;11.29;100.00;101365.59;5033336;28;20483;-90
2023/05/11 03:29:47;;;;;;;38.97;30.27;;;;;;;11.32;100.00;101372.47;5032369;28;20029;-90
2023/05/11 03:32:15;;;;;;;39.50;32.10;;;;;;;11.23;100.00;101368.66;5033589;28;20059;-90
2023/05/11 03:34:41;;;;;;;38.65;29.40;;;;;;;11.23;100.00;101365.16;5031493;28;20537;-90
2023/05/11 03:37:09;;;;;;;38.85;30.70;;;;;;;11.18;100.00;101356.69;5031460;28;20029;-90
2023/05/11 03:39:37;;;;;;;39.50;31.60;;;;;;;11.09;100.00;101345.72;5032210;28;20028;-90
2023/05/11 03:42:04;;;;;;;40.03;30.73;;;;;;;11.24;100.00;101373.03;5032599;28;20387;-90
2023/05/11 03:44:32;;;;;;;40.22;31.95;;;;;;;11.13;100.00;101351.69;5032653;28;20026;-90
2023/05/11 03:47:02;;;;;;;37.73;30.70;;;;;;;11.05;100.00;101351.38;5031417;28;20033;-90
2023/05/11 03:49:28;;;;;;;38.85;31.05;;;;;;;11.09;100.00;101352.84;5032736;28;20542;-90
2023/05/11 03:51:56;;;;;;;42.83;31.42;;;;;;;11.13;100.00;101356.16;5032790;28;20061;-90
2023/05/11 03:54:22;;;;;;;44.03;32.08;;;;;;;11.03;100.00;101348.81;5032433;28;20026;-90
2023/05/11 03:57:14;;;;;;;37.55;29.73;;;;;;;11.12;100.00;101363.25;5032583;28;20037;-90
2023/05/11 03:59:50;;;;;;;36.53;29.98;;;;;;;10.97;100.00;101346.56;5034399;28;20388;-90
2023/05/11 04:02:15;;;;;;;38.78;31.98;;;;;;;10.99;100.00;101351.78;5034697;28;20032;-90
2023/05/11 04:04:41;;;;;;;42.38;32.00;;;;;;;11.13;100.00;101372.94;5036348;28;20025;-90
2023/05/11 04:07:06;;;;;;;42.75;32.45;;;;;;;11.02;100.00;101359.56;5037535;28;20387;-90
2023/05/11 04:09:32;;;;;;;41.67;33.00;;;;;;;11.05;100.00;101362.00;5036186;28;20052;-90
2023/05/11 04:11:57;;;;;;;46.78;34.03;;;;;;;10.89;100.00;101335.63;5036374;28;20033;-90
2023/05/11 04:14:22;;;;;;;43.17;33.83;;;;;;;11.06;100.00;101371.69;5037319;28;20691;-90
2023/05/11 04:16:48;;;;;;;44.05;34.35;;;;;;;11.06;100.00;101369.03;5037366;28;20033;-90
2023/05/11 04:19:19;;;;;;;47.20;35.10;;;;;;;10.96;100.00;101346.69;5036320;28;20467;-90
2023/05/11 04:21:48;;;;;;;48.22;35.08;;;;;;;10.83;100.00;101333.44;5035388;28;20026;-90
2023/05/11 04:24:13;;;;;;;51.28;37.17;;;;;;;11.01;100.00;101357.88;5037409;28;20036;-90
2023/05/11 04:26:39;;;;;;;49.17;36.13;;;;;;;11.00;100.00;101358.81;5038139;28;20025;-90
2023/05/11 04:29:04;;;;;;;47.90;36.45;;;;;;;10.97;100.00;101354.56;5036938;28;20032;-90
2023/05/11 04:31:41;;;;;;;53.85;37.55;;;;;;;11.04;100.00;101366.47;5039624;28;20022;-90
2023/05/11 04:34:07;;;;;;;49.65;36.13;;;;;;;10.95;100.00;101348.50;5038134;28;20029;-90
2023/05/11 04:36:32;;;;;;;50.63;37.92;;;;;;;10.89;100.00;101338.28;5037082;28;20053;-90
2023/05/11 04:39:11;;;;;;;55.53;38.95;;;;;;;10.91;100.00;101337.25;5036354;28;20021;-90
2023/05/11 04:41:36;;;;;;;51.83;37.75;;;;;;;11.06;100.00;101367.22;5035236;28;20037;-90
2023/05/11 04:44:01;;;;;;;55.15;37.85;;;;;;;11.01;100.00;101364.03;5035169;28;20095;-90
2023/05/11 04:46:27;;;;;;;55.75;38.95;;;;;;;10.96;100.00;101346.69;5036425;28;20026;-90
2023/05/11 04:48:52;;;;;;;51.15;38.10;;;;;;;11.04;100.00;101360.28;5035939;28;20056;-90
2023/05/11 04:51:17;;;;;;;57.85;40.40;;;;;;;11.08;100.00;101364.44;5035123;28;20029;-90
2023/05/11 04:54:12;;;;;;;58.03;41.03;;;;;;;11.21;100.00;101380.38;5034441;28;20029;-90
2023/05/11 04:56:40;;;;;;;56.15;39.97;;;;;;;11.09;100.00;101363.47;5033348;28;20064;-90
2023/05/11 04:59:06;;;;;;;60.47;40.27;;;;;;;11.06;100.00;101364.56;5034633;28;20460;-90
2023/05/11 05:01:31;;;;;;;58.55;40.40;;;;;;;11.15;100.00;101378.16;5038280;28;20036;-90
2023/05/11 05:04:00;;;;;;;61.50;39.78;;;;;;;11.22;100.00;101382.91;5037704;28;20029;-90
2023/05/11 05:06:25;;;;;;;58.35;40.63;;;;;;;11.14;100.00;101364.03;5038619;28;20036;-90
2023/05/11 05:08:50;;;;;;;54.00;39.35;;;;;;;11.23;100.00;101387.28;5036933;28;20049;-89
2023/05/11 05:11:18;;;;;;;58.75;39.65;;;;;;;11.34;100.00;101398.97;5037736;28;20033;-89
2023/05/11 05:13:43;;;;;;;56.05;38.30;;;;;;;11.35;100.00;101398.84;5034710;28;20037;-89
2023/05/11 05:16:28;;;;;;;53.90;37.92;;;;;;;11.43;100.00;101409.81;5035662;28;20037;-89
2023/05/11 05:18:53;;;;;;;54.70;37.03;;;;;;;11.38;100.00;101405.78;5035926;28;20112;-89
2023/05/11 05:21:18;;;;;;;56.97;34.60;;;;;;;11.39;100.00;101411.00;5035241;28;20119;-90
2023/05/11 05:23:44;;;;;;;53.97;36.17;;;;;;;11.45;100.00;101421.19;5035473;28;20034;-89
2023/05/11 05:26:09;;;;;;;49.70;35.13;;;;;;;11.35;100.00;101398.00;5034264;28;20087;-90
2023/05/11 05:28:34;;;;;;;51.80;35.33;;;;;;;11.44;100.00;101408.84;5035158;28;20037;-91
2023/05/11 05:31:00;;;;;;;53.45;37.20;;;;;;;11.41;100.00;101398.44;5035000;28;20037;-90
2023/05/11 05:33:25;;;;;;;53.80;36.42;;;;;;;11.43;100.00;101396.50;5034315;28;20467;-90
2023/05/11 05:35:50;;;;;;;52.45;36.88;;;;;;;11.44;100.00;101400.00;5034614;28;20033;-91
2023/05/11 05:38:16;;;;;;;55.97;38.92;;;;;;;11.51;100.00;101411.94;5035118;28;20025;-91
2023/05/11 05:40:41;;;;;;;59.08;37.70;;;;;;;11.48;100.00;101405.00;5034566;28;20204;-90
2023/05/11 05:43:06;;;;;;;56.10;39.15;;;;;;;11.48;100.00;101397.03;5033546;28;20028;-90
2023/05/11 05:45:32;;;;;;;55.53;38.95;;;;;;;11.58;100.00;101405.19;5034667;28;20048;-90
2023/05/11 05:47:59;;;;;;;59.20;38.70;;;;;;;11.73;100.00;101427.19;5033218;28;20029;-88
2023/05/11 05:50:25;;;;;;;59.15;40.67;;;;;;;11.78;100.00;101432.19;5031843;28;20032;-88
2023/05/11 05:52:50;;;;;;;64.55;40.25;;;;;;;11.84;100.00;101434.41;5033049;28;20030;-90
2023/05/11 05:55:34;;;;;;;64.68;40.30;;;;;;;11.84;100.00;101423.78;5052641;28;20045;-89
2023/05/11 05:57:59;;;;;;;57.53;38.60;;;;;;;11.84;100.00;101426.44;5052735;28;20471;-90
2023/05/11 06:00:35;;;;;;;60.00;39.60;;;;;;;11.95;100.00;101437.16;5052214;28;20447;-89
2023/05/11 06:03:01;;;;;;;61.55;40.88;;;;;;;11.79;100.00;101404.59;5052829;28;20029;-89
2023/05/11 06:05:26;;;;;;;58.75;40.22;;;;;;;11.99;100.00;101445.75;5033501;28;20491;-89
2023/05/11 06:07:51;;;;;;;65.93;42.22;;;;;;;11.86;100.00;101427.16;5033988;28;20026;-88
2023/05/11 06:10:17;;;;;;;60.17;41.13;;;;;;;11.83;100.00;101414.06;5033762;28;20403;-89
2023/05/11 06:12:42;;;;;;;63.40;43.03;;;;;;;11.96;100.00;101430.88;5032433;28;20096;-89
2023/05/11 06:15:08;;;;;;;68.28;42.00;;;;;;;12.03;100.00;101444.59;5033512;28;20042;-88
2023/05/11 06:17:33;;;;;;;63.78;42.35;;;;;;;12.09;100.00;101441.50;5033913;28;20459;-88
2023/05/11 06:19:58;;;;;;;68.25;42.15;;;;;;;11.98;100.00;101428.94;5034204;28;20043;-88
2023/05/11 06:22:24;;;;;;;67.97;43.40;;;;;;;11.98;100.00;101428.09;5034315;28;20032;-88
2023/05/11 06:24:49;;;;;;;68.28;44.13;;;;;;;12.02;100.00;101434.91;5032940;28;20388;-88
2023/05/11 06:27:14;;;;;;;65.45;42.78;;;;;;;12.03;100.00;101429.47;5033528;28;20095;-87
2023/05/11 06:29:41;;;;;;;66.60;42.58;;;;;;;12.03;100.00;101432.13;5033201;28;20076;-88
2023/05/11 06:32:06;;;;;;;68.68;43.05;;;;;;;12.19;100.00;101452.28;5033963;28;20349;-89
2023/05/11 06:34:33;;;;;;;64.72;43.72;;;;;;;12.01;100.00;101418.06;5027813;28;20116;-88
2023/05/11 06:36:58;;;;;;;60.83;42.70;;;;;;;12.02;100.00;101419.78;5029313;28;20026;-88
2023/05/11 06:39:26;;;;;;;71.03;44.10;;;;;;;12.18;100.00;101438.13;5026125;28;20048;-89
2023/05/11 06:41:57;;;;;;;66.78;42.25;;;;;;;12.18;100.00;101439.94;5040956;28;20032;-88
2023/05/11 06:44:22;;;;;;;66.32;41.88;;;;;;;12.26;100.00;101456.22;5032895;28;20142;-88
2023/05/11 06:46:48;;;;;;;65.45;41.60;;;;;;;12.24;100.00;101447.50;5033649;28;20475;-88
2023/05/11 06:49:13;;;;;;;65.78;42.50;;;;;;;12.33;100.00;101456.63;5023247;28;20049;-89
2023/05/11 06:51:38;;;;;;;62.00;41.75;;;;;;;12.33;100.00;101451.28;5033118;28;20036;-88
2023/05/11 06:54:04;;;;;;;65.63;41.85;;;;;;;12.35;100.00;101460.84;5031720;28;20036;-89
2023/05/11 06:56:30;;;;;;;60.00;41.30;;;;;;;12.37;100.00;101450.06;5033303;28;20030;-88
2023/05/11 06:58:56;;;;;;;62.78;40.08;;;;;;;12.29;100.00;101444.47;5033236;28;20534;-88
2023/05/11 07:01:21;;;;;;;63.60;42.90;;;;;;;12.46;100.00;101472.53;5032175;28;20125;-90
2023/05/11 07:03:48;;;;;;;66.72;45.05;;;;;;;12.31;100.00;101451.41;5029186;28;20364;-90
2023/05/11 07:06:15;;;;;;;68.68;44.58;;;;;;;12.43;100.00;101478.94;5032931;28;20043;-90
2023/05/11 07:08:40;;;;;;;85.07;50.38;;;;;;;12.43;100.00;101467.44;5032721;28;20407;-90
2023/05/11 07:11:06;;;;;;;80.47;51.20;;;;;;;12.30;100.00;101456.84;5032549;28;20041;-90
2023/05/11 07:13:31;;;;;;;90.97;52.50;;;;;;;12.41;100.00;101472.88;5030922;28;20077;-90
2023/05/11 07:15:57;;;;;;;90.82;51.53;;;;;;;12.44;100.00;101471.78;5032949;28;20038;-90
2023/05/11 07:18:22;;;;;;;87.53;51.95;;;;;;;12.40;100.00;101469.34;5031223;28;20033;-90
2023/05/11 07:20:48;;;;;;;88.22;50.08;;;;;;;12.37;100.00;101466.06;5032711;28;20041;-90
2023/05/11 07:23:15;;;;;;;74.72;49.08;;;;;;;12.44;100.00;101482.44;5032849;28;20033;-90
2023/05/11 07:25:40;;;;;;;78.60;48.55;;;;;;;12.32;100.00;101455.78;5032669;28;20140;-90
2023/05/11 07:28:06;;;;;;;82.63;50.33;;;;;;;12.30;100.00;101452.34;5032632;28;20476;-91
2023/05/11 07:30:31;;;;;;;81.18;49.28;;;;;;;12.34;100.00;101467.16;5032603;28;20033;-90
2023/05/11 07:33:13;;;;;;;79.88;48.75;;;;;;;12.43;100.00;101470.09;5032636;28;20101;-91
2023/05/11 07:35:38;;;;;;;83.47;49.05;;;;;;;12.31;100.00;101454.06;5032086;28;20038;-89
2023/05/11 07:38:06;;;;;;;81.43;48.75;;;;;;;12.46;100.00;101470.72;5034422;28;20460;-90
2023/05/11 07:40:32;;;;;;;78.50;47.47;;;;;;;12.59;100.00;101483.97;5039343;28;20072;-90
2023/05/11 07:42:57;;;;;;;77.10;47.95;;;;;;;12.55;100.00;101477.16;5038317;28;20021;-90
2023/05/11 07:45:23;;;;;;;79.55;48.42;;;;;;;12.41;100.00;101443.56;5037910;28;20033;-91
2023/05/11 07:47:48;;;;;;;79.30;51.60;;;;;;;12.50;100.00;101455.34;5038151;28;20040;-90
2023/05/11 07:50:13;;;;;;;84.05;51.30;;;;;;;12.71;100.00;101483.03;5037953;28;20467;-90
2023/05/11 07:52:39;;;;;;;92.47;53.53;;;;;;;12.58;100.00;101460.94;5039115;28;20072;-90
2023/05/11 07:55:05;;;;;;;91.93;52.95;;;;;;;12.69;100.00;101479.66;5038309;28;20029;-90
2023/05/11 07:57:30;;;;;;;96.85;55.45;;;;;;;12.57;100.00;101459.25;5036611;28;20368;-90
2023/05/11 07:59:57;;;;;;;91.35;54.22;;;;;;;12.53;100.00;101461.28;5035843;28;20105;-91
2023/05/11 08:02:22;;;;;;;101.43;56.72;;;;;;;12.64;100.00;101487.16;5038813;28;20037;-89
2023/05/11 08:04:49;;;;;;;95.45;55.95;;;;;;;12.67;100.00;101486.88;5049200;28;20033;-90
2023/05/11 08:07:15;;;;;;;93.40;54.65;;;;;;;12.52;100.00;101467.59;5038275;28;20651;-89
2023/05/11 08:09:41;;;;;;;98.80;54.90;;;;;;;12.59;100.00;101489.31;5026867;28;20052;-89
2023/05/11 08:12:08;;;;;;;97.78;52.90;;;;;;;12.58;100.00;101500.94;5014041;28;20022;-90
2023/05/11 08:14:37;;;;;;;93.35;54.05;;;;;;;12.57;100.00;101485.88;5036347;28;20475;-90
2023/05/11 08:17:07;;;;;;;89.03;53.38;;;;;;;12.55;100.00;101491.34;5038169;28;20029;-90
2023/05/11 08:19:32;;;;;;;95.35;55.25;;;;;;;12.45;100.00;101474.34;5036383;28;20044;-90
2023/05/11 08:21:59;;;;;;;100.63;59.15;;;;;;;12.51;100.00;101484.53;5036437;28;20460;-90
2023/05/11 08:24:25;;;;;;;98.50;57.70;;;;;;;12.48;100.00;101473.28;5036726;28;20029;-90
2023/05/11 08:26:50;;;;;;;105.68;58.45;;;;;;;12.57;100.00;101485.88;5035324;28;20052;-88
2023/05/11 08:29:15;;;;;;;97.03;55.88;;;;;;;12.57;100.00;101488.56;5036409;28;20092;-90
2023/05/11 08:31:41;;;;;;;94.97;55.35;;;;;;;12.57;100.00;101489.41;5035292;28;20037;-89
2023/05/11 08:34:09;;;;;;;100.63;55.88;;;;;;;12.55;100.00;101483.34;5033923;28;20404;-88
2023/05/11 08:36:35;;;;;;;95.53;56.42;;;;;;;12.51;100.00;101473.03;5017459;28;20026;-89
2023/05/11 08:39:01;;;;;;;99.18;56.58;;;;;;;12.58;100.00;101488.44;5017917;28;20071;-89
2023/05/11 08:41:28;;;;;;;98.57;57.58;;;;;;;12.65;100.00;101495.97;5015910;28;20026;-90
2023/05/11 08:43:56;;;;;;;98.78;57.95;;;;;;;12.60;100.00;101488.31;5019010;28;20025;-90
2023/05/11 08:46:47;;;;;;;100.28;57.33;;;;;;;12.66;100.00;101485.22;5035152;28;20034;-90
2023/05/11 08:49:13;;;;;;;98.78;59.13;;;;;;;12.69;100.00;101498.31;5035295;28;20112;-88
2023/05/11 08:51:44;;;;;;;111.03;58.30;;;;;;;12.63;100.00;101481.94;5035319;28;20486;-89
2023/05/11 08:54:31;;;;;;;98.20;60.38;;;;;;;12.84;100.00;101508.75;5015027;28;21231;-90
2023/05/11 08:57:00;;;;;;;105.95;60.03;;;;;;;12.73;100.00;101486.44;5013861;28;20025;-90
2023/05/11 08:59:32;;;;;;;112.35;61.08;;;;;;;12.82;100.00;101498.22;5028777;28;20025;-89
2023/05/11 09:01:59;;;;;;;108.85;62.67;;;;;;;12.87;100.00;101495.19;5035409;28;20411;-90
2023/05/11 09:04:25;;;;;;;109.10;61.67;;;;;;;12.94;100.00;101504.47;5034028;28;20029;-91
2023/05/11 09:06:51;;;;;;;113.70;60.80;;;;;;;12.98;100.00;101503.25;5034493;28;20053;-89
2023/05/11 09:09:17;;;;;;;99.90;59.17;;;;;;;13.04;100.00;101500.13;5034430;28;20541;-90
2023/05/11 09:11:43;;;;;;;102.05;59.42;;;;;;;13.14;100.00;101506.44;5034177;28;20025;-89
2023/05/11 09:14:09;;;;;;;100.82;57.83;;;;;;;13.07;100.00;101491.88;5031798;28;20467;-89
2023/05/11 09:16:34;;;;;;;96.90;56.83;;;;;;;13.17;100.00;101500.00;5048610;28;20029;-90
2023/05/11 09:19:02;;;;;;;102.95;57.42;;;;;;;13.19;100.00;101489.22;5055088;28;20075;-89
2023/05/11 09:21:30;;;;;;;102.50;58.80;;;;;;;13.34;100.00;101509.44;5055140;28;20526;-90
2023/05/11 09:23:57;;;;;;;99.53;57.58;;;;;;;13.50;100.00;101509.91;5055309;28;20021;-90
2023/05/11 09:26:24;;;;;;;100.78;58.60;;;;;;;13.62;100.00;101520.59;5036635;28;20063;-90
2023/05/11 09:28:51;;;;;;;95.22;56.70;;;;;;;13.63;100.00;101511.63;5033722;28;20120;-89
2023/05/11 09:31:39;;;;;;;109.70;59.00;;;;;;;13.73;100.00;101522.44;5034594;28;20026;-89
2023/05/11 09:34:19;;;;;;;100.47;59.07;;;;;;;13.77;100.00;101524.72;5033991;28;20044;-90
2023/05/11 09:36:48;;;;;;;96.60;56.85;;;;;;;13.74;100.00;101519.63;5032350;28;20030;-89
2023/05/11 09:39:14;;;;;;;;;;;;;;;13.88;100.00;101521.19;5034647;28;20097;-89
2023/05/11 09:41:40;;;;;;;89.75;55.92;;;;;;;13.85;100.00;101522.28;5034886;28;20321;-90
2023/05/11 09:44:14;;;;;;;94.97;56.10;;;;;;;13.87;100.00;101520.34;5033633;28;20021;-90
2023/05/11 09:46:51;;;;;;;97.72;57.20;;;;;;;13.93;100.00;101520.84;5034933;28;20390;-90
2023/05/11 09:49:17;;;;;;;96.97;57.22;;;;;;;13.85;100.00;101519.59;5034601;28;20033;-89
2023/05/11 09:51:42;;;;;;;94.55;56.50;;;;;;;13.84;100.00;101525.94;5035225;28;20052;-90
2023/05/11 09:54:19;;;;;;;91.38;55.30;;;;;;;13.77;100.00;101510.50;5034579;28;20474;-89
2023/05/11 09:56:57;;;;;;;92.00;53.55;;;;;;;13.90;100.00;101521.06;5034716;28;20031;-88
2023/05/11 09:59:40;;;;;;;85.35;53.60;;;;;;;13.95;100.00;101524.22;5034078;28;20033;-89
2023/05/11 10:02:18;;;;;;;93.82;55.03;;;;;;;13.99;100.00;101533.69;5032735;28;20079;-89
2023/05/11 10:04:43;;;;;;;90.13;54.40;;;;;;;13.98;100.00;101526.66;5033228;28;20474;-89
2023/05/11 10:07:09;;;;;;;87.25;53.38;;;;;;;14.07;100.00;101528.56;5034084;28;20108;-89
2023/05/11 10:09:35;;;;;;;90.70;55.25;;;;;;;14.11;100.00;101519.34;5032036;28;20136;-90
2023/05/11 10:12:01;;;;;;;86.97;53.28;;;;;;;14.11;100.00;101494.47;5034039;28;20049;-89
2023/05/11 10:14:29;;;;;;;76.10;52.03;;;;;;;14.29;100.00;101517.00;5033475;28;20048;-90
2023/05/11 10:16:56;;;;;;;79.72;50.80;;;;;;;14.22;100.00;101500.63;5032991;28;20044;-89
2023/05/11 10:19:22;;;;;;;74.85;48.60;;;;;;;14.48;100.00;101520.84;5046444;28;20039;-89
2023/05/11 10:21:50;;;;;;;72.60;47.72;;;;;;;14.51;100.00;101496.53;5053003;28;20017;-90
2023/05/11 10:24:19;;;;;;;73.68;47.17;;;;;;;14.63;100.00;101510.75;5038937;28;20091;-90
2023/05/11 10:26:44;;;;;;;68.55;46.08;;;;;;;14.72;100.00;101516.16;5036907;28;20025;-89
2023/05/11 10:29:11;;;;;;;72.13;47.67;;;;;;;14.71;100.00;101506.44;5034426;28;20033;-90
2023/05/11 10:31:37;;;;;;;78.85;48.45;;;;;;;14.77;100.00;101530.00;5033007;28;20060;-90
2023/05/11 10:34:03;;;;;;;81.00;50.90;;;;;;;14.64;100.00;101507.94;5034008;28;20439;-90
2023/05/11 10:36:29;;;;;;;76.53;50.53;;;;;;;14.67;100.00;101513.03;5032782;28;20079;-90
2023/05/11 10:38:56;;;;;;;77.03;50.83;;;;;;;14.70;100.00;101502.06;5033586;28;20029;-89
2023/05/11 10:41:22;;;;;;;80.43;49.90;;;;;;;14.89;100.00;101527.25;5034868;28;20486;-90
2023/05/11 10:44:20;;;;;;;80.05;49.47;;;;;;;14.92;100.00;101530.53;5036721;28;20097;-90
2023/05/11 10:47:03;;;;;;;85.15;52.05;;;;;;;14.89;100.00;101524.56;5036557;28;20108;-89
2023/05/11 10:49:45;;;;;;;81.30;48.80;;;;;;;14.85;100.00;101523.16;5033473;28;20033;-89
2023/05/11 10:52:24;;;;;;;78.25;48.55;;;;;;;14.86;100.00;101517.69;5032030;28;20083;-89
2023/05/11 10:54:59;;;;;;;74.78;46.00;;;;;;;14.94;100.00;101525.91;5018031;28;20029;-89
2023/05/11 10:58:02;;;;;;;81.57;48.15;;;;;;;15.04;100.00;101517.09;5029040;28;20371;-89
2023/05/11 11:01:02;;;;;;;74.03;47.15;;;;;;;15.11;100.00;101513.78;5034805;28;20091;-90
2023/05/11 11:03:29;;;;;;;75.13;46.65;;;;;;;15.14;100.00;101510.84;5034400;28;20052;-90
2023/05/11 11:05:56;;;;;;;74.85;47.83;;;;;;;15.31;100.00;101514.75;5030965;28;20076;-88
2023/05/11 11:08:21;;;;;;;77.80;48.95;;;;;;;15.29;99.82;101489.94;5031505;28;20044;-88